Time;durP1;ratioP1;P1;durP2;ratioP2;P2;SDS_P1;SDS_P2;PMS_P1;PMS_P2;Temp;Humidity;BMP_temperature;BMP_pressure;BME280_temperature;BME280_humidity;BME280_pressure;Samples;Min_cycle;Max_cycle;Signal;HPM_P1;HPM_P2
2021/11/15 00:02:04;;;;;;;47.67;30.80;;;;;;;;;;143739;700;45018;-57
2021/11/15 00:04:33;;;;;;;38.45;28.50;;;;;;;;;;143734;578;46020;-56
2021/11/15 00:07:01;;;;;;;48.80;33.92;;;;;;;;;;143734;594;46020;-58
2021/11/15 00:09:29;;;;;;;41.35;27.10;;;;;;;;;;143738;570;45020;-57
2021/11/15 00:11:56;;;;;;;42.65;31.05;;;;;;;;;;143739;591;45021;-55
2021/11/15 00:14:23;;;;;;;34.90;24.05;;;;;;;;;;143734;602;46022;-58
2021/11/15 00:16:50;;;;;;;46.92;32.72;;;;;;;;;;143733;633;46020;-56
2021/11/15 00:19:17;;;;;;;37.67;26.67;;;;;;;;;;143737;579;45021;-57
2021/11/15 00:21:44;;;;;;;39.70;25.95;;;;;;;;;;143738;585;46020;-56
2021/11/15 00:24:12;;;;;;;35.40;25.88;;;;;;;;;;143733;599;47020;-57
2021/11/15 00:26:39;;;;;;;32.33;23.20;;;;;;;;;;143733;605;46021;-58
2021/11/15 00:29:06;;;;;;;34.13;27.17;;;;;;;;;;143738;583;45020;-56
2021/11/15 00:31:33;;;;;;;43.05;31.67;;;;;;;;;;143737;608;45020;-56
2021/11/15 00:34:00;;;;;;;47.20;32.25;;;;;;;;;;143733;608;46023;-58
2021/11/15 00:36:27;;;;;;;41.90;28.27;;;;;;;;;;143733;564;46020;-55
2021/11/15 00:38:54;;;;;;;31.85;23.75;;;;;;;;;;143734;660;45911;-57
2021/11/15 00:41:22;;;;;;;44.33;31.40;;;;;;;;;;143739;583;45021;-56
2021/11/15 00:43:49;;;;;;;47.53;31.27;;;;;;;;;;143735;610;46022;-58
2021/11/15 00:46:16;;;;;;;42.85;30.23;;;;;;;;;;143732;580;46020;-56
2021/11/15 00:48:43;;;;;;;34.85;25.48;;;;;;;;;;143739;625;45021;-55
2021/11/15 00:51:10;;;;;;;34.38;24.60;;;;;;;;;;143738;591;45020;-55
2021/11/15 00:53:37;;;;;;;45.10;33.25;;;;;;;;;;143734;583;46022;-57
2021/11/15 00:56:05;;;;;;;46.65;31.48;;;;;;;;;;143733;583;46021;-56
2021/11/15 00:58:32;;;;;;;38.85;25.62;;;;;;;;;;143738;689;45020;-55
2021/11/15 01:00:58;;;;;;;40.42;31.00;;;;;;;;;;143738;575;45020;-56
2021/11/15 01:03:26;;;;;;;33.90;26.48;;;;;;;;;;143734;580;46023;-58
2021/11/15 01:05:53;;;;;;;40.45;30.60;;;;;;;;;;143734;605;46020;-57
2021/11/15 01:08:20;;;;;;;39.33;29.23;;;;;;;;;;143738;583;45020;-57
2021/11/15 01:10:49;;;;;;;39.15;28.15;;;;;;;;;;143738;582;45021;-58
2021/11/15 01:13:17;;;;;;;56.42;40.53;;;;;;;;;;143736;718;46023;-57
2021/11/15 01:15:44;;;;;;;44.60;31.95;;;;;;;;;;143734;667;46020;-57
2021/11/15 01:18:11;;;;;;;53.03;35.95;;;;;;;;;;143737;586;45911;-56
2021/11/15 01:20:38;;;;;;;46.35;33.55;;;;;;;;;;143738;589;45020;-57
2021/11/15 01:23:06;;;;;;;52.92;36.85;;;;;;;;;;143736;711;46022;-59
2021/11/15 01:25:35;;;;;;;56.42;37.30;;;;;;;;;;143736;648;46021;-56
2021/11/15 01:28:02;;;;;;;59.20;39.45;;;;;;;;;;143738;620;45020;-58
2021/11/15 01:30:29;;;;;;;46.85;33.10;;;;;;;;;;143739;594;45020;-56
2021/11/15 01:32:57;;;;;;;50.53;35.88;;;;;;;;;;143735;602;46021;-58
2021/11/15 01:35:26;;;;;;;49.80;34.92;;;;;;;;;;143734;575;46020;-55
2021/11/15 01:37:55;;;;;;;54.38;41.67;;;;;;;;;;143739;563;45020;-58
2021/11/15 01:40:25;;;;;;;48.60;35.08;;;;;;;;;;143738;584;45021;-56
2021/11/15 01:42:54;;;;;;;44.25;32.30;;;;;;;;;;143733;581;46022;-57
2021/11/15 01:45:25;;;;;;;39.28;30.73;;;;;;;;;;143733;598;46020;-57
2021/11/15 01:47:56;;;;;;;47.85;31.25;;;;;;;;;;143734;585;45911;-55
2021/11/15 01:50:25;;;;;;;42.62;30.95;;;;;;;;;;143737;579;45020;-56
2021/11/15 01:52:54;;;;;;;47.13;33.50;;;;;;;;;;143731;565;46022;-55
2021/11/15 01:55:22;;;;;;;50.05;33.85;;;;;;;;;;143732;564;46021;-56
2021/11/15 01:57:50;;;;;;;48.72;32.40;;;;;;;;;;143735;569;45020;-57
2021/11/15 02:00:25;;;;;;;46.47;33.75;;;;;;;;;;143737;597;45020;-57
2021/11/15 02:02:52;;;;;;;44.92;32.85;;;;;;;;;;143733;577;46022;-57
2021/11/15 02:05:20;;;;;;;53.00;34.90;;;;;;;;;;143731;688;46020;-58
2021/11/15 02:07:47;;;;;;;45.42;33.35;;;;;;;;;;143735;566;45020;-56
2021/11/15 02:10:15;;;;;;;42.58;31.73;;;;;;;;;;143736;715;46021;-56
2021/11/15 02:12:42;;;;;;;51.83;33.47;;;;;;;;;;143734;583;46022;-56
2021/11/15 02:15:11;;;;;;;44.97;32.58;;;;;;;;;;143732;612;46020;-55
2021/11/15 02:17:39;;;;;;;52.45;35.95;;;;;;;;;;143733;602;46021;-57
2021/11/15 02:20:09;;;;;;;42.92;33.75;;;;;;;;;;143736;701;45020;-57
2021/11/15 02:22:36;;;;;;;57.25;33.47;;;;;;;;;;143734;673;46020;-57
2021/11/15 02:25:06;;;;;;;50.17;32.47;;;;;;;;;;143731;593;46013;-56
2021/11/15 02:27:35;;;;;;;40.20;29.58;;;;;;;;;;143736;589;45044;-56
2021/11/15 02:30:05;;;;;;;49.72;34.15;;;;;;;;;;143737;620;46020;-57
2021/11/15 02:32:32;;;;;;;46.37;30.37;;;;;;;;;;143734;607;46021;-58
2021/11/15 02:34:59;;;;;;;53.20;36.88;;;;;;;;;;143730;585;47022;-58
2021/11/15 02:37:26;;;;;;;42.33;29.85;;;;;;;;;;143735;589;46020;-57
2021/11/15 02:39:54;;;;;;;61.50;35.50;;;;;;;;;;143737;606;46021;-56
2021/11/15 02:42:22;;;;;;;52.17;32.38;;;;;;;;;;143733;571;46020;-57
2021/11/15 02:44:49;;;;;;;36.25;28.23;;;;;;;;;;143731;570;46012;-58
2021/11/15 02:47:21;;;;;;;40.03;29.67;;;;;;;;;;143735;598;46021;-59
2021/11/15 02:49:48;;;;;;;54.75;32.90;;;;;;;;;;143736;704;45020;-58
2021/11/15 02:52:17;;;;;;;44.53;30.55;;;;;;;;;;143734;575;46022;-55
2021/11/15 02:54:45;;;;;;;60.55;34.45;;;;;;;;;;143732;602;46021;-58
2021/11/15 02:57:20;;;;;;;50.50;33.25;;;;;;;;;;143732;616;46020;-56
2021/11/15 02:59:47;;;;;;;52.77;32.10;;;;;;;;;;143736;564;46014;-57
2021/11/15 03:02:15;;;;;;;49.92;33.53;;;;;;;;;;143734;574;46022;-56
2021/11/15 03:04:44;;;;;;;47.50;32.50;;;;;;;;;;143731;569;46012;-58
2021/11/15 03:07:12;;;;;;;49.55;33.75;;;;;;;;;;143734;594;46018;-58
2021/11/15 03:09:40;;;;;;;44.85;32.30;;;;;;;;;;143737;587;45025;-56
2021/11/15 03:12:11;;;;;;;53.50;35.03;;;;;;;;;;143734;632;46022;-56
2021/11/15 03:14:38;;;;;;;44.30;32.28;;;;;;;;;;143733;572;46020;-55
2021/11/15 03:17:05;;;;;;;43.00;31.37;;;;;;;;;;143731;581;46015;-57
2021/11/15 03:19:32;;;;;;;52.78;38.08;;;;;;;;;;143737;598;45020;-56
2021/11/15 03:21:59;;;;;;;43.97;30.27;;;;;;;;;;143734;583;46022;-58
2021/11/15 03:24:26;;;;;;;52.10;36.17;;;;;;;;;;143731;613;46013;-57
2021/11/15 03:26:53;;;;;;;51.90;34.95;;;;;;;;;;143735;589;46020;-56
2021/11/15 03:29:20;;;;;;;44.70;33.70;;;;;;;;;;143736;588;46014;-58
2021/11/15 03:31:47;;;;;;;40.85;28.95;;;;;;;;;;143734;610;46022;-57
2021/11/15 03:34:16;;;;;;;41.88;31.27;;;;;;;;;;143731;590;46012;-56
2021/11/15 03:36:46;;;;;;;49.55;34.17;;;;;;;;;;143732;597;46020;-57
2021/11/15 03:39:13;;;;;;;49.40;37.13;;;;;;;;;;143735;616;46014;-56
2021/11/15 03:41:44;;;;;;;38.38;29.87;;;;;;;;;;143730;581;46022;-58
2021/11/15 03:44:11;;;;;;;51.83;37.35;;;;;;;;;;143731;593;46012;-57
2021/11/15 03:46:39;;;;;;;43.63;34.83;;;;;;;;;;143733;671;46021;-58
2021/11/15 03:49:07;;;;;;;49.17;35.05;;;;;;;;;;143737;610;45020;-58
2021/11/15 03:51:34;;;;;;;57.92;36.90;;;;;;;;;;143734;585;46029;-55
2021/11/15 03:54:02;;;;;;;49.75;34.30;;;;;;;;;;143730;593;46021;-58
2021/11/15 03:56:29;;;;;;;42.22;30.80;;;;;;;;;;143732;569;46020;-58
2021/11/15 03:58:58;;;;;;;46.50;33.72;;;;;;;;;;143735;566;46014;-58
2021/11/15 04:01:29;;;;;;;54.85;38.33;;;;;;;;;;143734;713;46021;-57
2021/11/15 04:04:00;;;;;;;54.53;36.22;;;;;;;;;;143732;607;46020;-57
2021/11/15 04:06:30;;;;;;;39.47;30.00;;;;;;;;;;143735;575;45911;-56
2021/11/15 04:09:02;;;;;;;45.05;32.35;;;;;;;;;;143738;579;45035;-58
2021/11/15 04:11:33;;;;;;;38.50;29.00;;;;;;;;;;143734;575;46022;-56
2021/11/15 04:14:05;;;;;;;56.60;35.40;;;;;;;;;;143733;571;46020;-58
2021/11/15 04:16:33;;;;;;;46.30;33.63;;;;;;;;;;143736;571;45033;-56
2021/11/15 04:19:11;;;;;;;42.15;31.77;;;;;;;;;;143736;592;45020;-56
2021/11/15 04:21:38;;;;;;;41.28;31.67;;;;;;;;;;143734;616;46020;-56
2021/11/15 04:24:06;;;;;;;53.13;36.92;;;;;;;;;;143732;578;46012;-56
2021/11/15 04:26:34;;;;;;;53.45;36.22;;;;;;;;;;143733;674;46020;-58
2021/11/15 04:29:02;;;;;;;53.45;34.92;;;;;;;;;;143736;577;46014;-57
2021/11/15 04:31:29;;;;;;;46.50;34.70;;;;;;;;;;143733;613;46023;-57
2021/11/15 04:33:56;;;;;;;45.65;33.60;;;;;;;;;;143734;585;46020;-56
2021/11/15 04:36:23;;;;;;;38.38;29.98;;;;;;;;;;143733;594;46020;-58
2021/11/15 04:38:51;;;;;;;40.03;30.60;;;;;;;;;;143734;595;46021;-57
2021/11/15 04:41:19;;;;;;;48.15;35.45;;;;;;;;;;143734;593;46022;-56
2021/11/15 04:43:47;;;;;;;44.50;32.10;;;;;;;;;;143730;568;46012;-58
2021/11/15 04:46:14;;;;;;;37.38;28.45;;;;;;;;;;143732;575;46021;-58
2021/11/15 04:48:41;;;;;;;37.95;28.17;;;;;;;;;;143736;587;45020;-56
2021/11/15 04:51:08;;;;;;;49.70;34.95;;;;;;;;;;143734;571;46022;-57
2021/11/15 04:53:35;;;;;;;49.60;36.35;;;;;;;;;;143733;588;46012;-57
2021/11/15 04:56:01;;;;;;;46.78;36.45;;;;;;;;;;143733;592;46020;-57
2021/11/15 04:58:28;;;;;;;50.28;34.53;;;;;;;;;;143737;575;45020;-56
2021/11/15 05:00:55;;;;;;;51.67;37.45;;;;;;;;;;143733;590;46023;-55
2021/11/15 05:03:23;;;;;;;46.78;34.03;;;;;;;;;;143732;571;46012;-55
2021/11/15 05:05:51;;;;;;;42.78;32.53;;;;;;;;;;143733;600;46018;-58
2021/11/15 05:08:18;;;;;;;42.40;31.37;;;;;;;;;;143736;570;46012;-55
2021/11/15 05:10:45;;;;;;;45.95;32.33;;;;;;;;;;143734;620;46023;-58
2021/11/15 05:13:12;;;;;;;52.47;32.92;;;;;;;;;;143733;611;46012;-58
2021/11/15 05:15:39;;;;;;;54.92;38.28;;;;;;;;;;143736;565;45021;-56
2021/11/15 05:18:06;;;;;;;47.75;34.47;;;;;;;;;;143737;600;45020;-56
2021/11/15 05:20:33;;;;;;;46.47;31.40;;;;;;;;;;143734;616;46022;-57
2021/11/15 05:23:00;;;;;;;39.22;31.27;;;;;;;;;;143730;577;46021;-58
2021/11/15 05:25:27;;;;;;;49.42;35.75;;;;;;;;;;143734;569;46020;-57
2021/11/15 05:27:55;;;;;;;53.83;39.30;;;;;;;;;;143736;597;45020;-57
2021/11/15 05:30:22;;;;;;;62.90;47.88;;;;;;;;;;143733;698;46021;-55
2021/11/15 05:32:51;;;;;;;64.40;54.67;;;;;;;;;;143729;656;47014;-58
2021/11/15 05:35:19;;;;;;;86.15;67.12;;;;;;;;;;143735;576;46018;-55
2021/11/15 05:37:48;;;;;;;59.13;46.72;;;;;;;;;;143736;588;45021;-58
2021/11/15 05:40:16;;;;;;;52.55;39.88;;;;;;;;;;143734;577;46020;-57
2021/11/15 05:42:43;;;;;;;54.88;36.95;;;;;;;;;;143731;610;46012;-59
2021/11/15 05:45:10;;;;;;;47.25;36.95;;;;;;;;;;143733;564;46021;-57
2021/11/15 05:47:39;;;;;;;66.32;47.62;;;;;;;;;;143734;577;46012;-55
2021/11/15 05:50:07;;;;;;;58.10;44.28;;;;;;;;;;143734;694;46020;-58
2021/11/15 05:52:39;;;;;;;55.97;42.85;;;;;;;;;;143733;596;46012;-57
2021/11/15 05:55:07;;;;;;;41.25;31.98;;;;;;;;;;143734;594;46018;-59
2021/11/15 05:57:34;;;;;;;45.12;33.13;;;;;;;;;;143737;688;45020;-57
2021/11/15 06:00:01;;;;;;;42.72;31.58;;;;;;;;;;143733;586;46022;-58
2021/11/15 06:02:28;;;;;;;42.67;34.65;;;;;;;;;;143732;629;46020;-57
2021/11/15 06:04:55;;;;;;;49.97;36.65;;;;;;;;;;143733;588;46020;-57
2021/11/15 06:07:22;;;;;;;44.60;34.90;;;;;;;;;;143733;598;46013;-57
2021/11/15 06:09:50;;;;;;;46.05;36.17;;;;;;;;;;143733;579;46023;-58
2021/11/15 06:12:17;;;;;;;51.70;41.08;;;;;;;;;;143731;587;46012;-56
2021/11/15 06:14:44;;;;;;;70.37;52.47;;;;;;;;;;143732;664;46021;-56
2021/11/15 06:17:10;;;;;;;55.15;45.78;;;;;;;;;;143736;583;45028;-58
2021/11/15 06:19:37;;;;;;;49.47;39.00;;;;;;;;;;143734;596;46020;-56
2021/11/15 06:22:05;;;;;;;44.55;34.78;;;;;;;;;;143731;570;46013;-56
2021/11/15 06:24:32;;;;;;;46.58;35.15;;;;;;;;;;143732;571;46020;-58
2021/11/15 06:27:00;;;;;;;50.17;35.72;;;;;;;;;;143736;587;45024;-57
2021/11/15 06:29:28;;;;;;;53.30;36.60;;;;;;;;;;143734;591;46021;-55
2021/11/15 06:31:56;;;;;;;59.42;46.45;;;;;;;;;;143731;564;46020;-58
2021/11/15 06:34:23;;;;;;;54.53;41.15;;;;;;;;;;143733;564;45020;-57
2021/11/15 06:36:49;;;;;;;76.12;54.60;;;;;;;;;;143731;606;46014;-56
2021/11/15 06:39:16;;;;;;;76.43;53.83;;;;;;;;;;143734;579;46023;-56
2021/11/15 06:41:43;;;;;;;69.10;50.33;;;;;;;;;;143731;606;46012;-56
2021/11/15 06:44:10;;;;;;;79.45;52.90;;;;;;;;;;143735;643;46021;-56
2021/11/15 06:46:37;;;;;;;72.47;50.38;;;;;;;;;;143735;581;46012;-58
2021/11/15 06:49:04;;;;;;;61.47;46.42;;;;;;;;;;143734;602;46022;-58
2021/11/15 06:51:31;;;;;;;67.40;47.03;;;;;;;;;;143731;564;46013;-57
2021/11/15 06:53:59;;;;;;;65.82;43.75;;;;;;;;;;143734;719;46020;-57
2021/11/15 06:56:26;;;;;;;67.30;45.88;;;;;;;;;;143733;585;46014;-57
2021/11/15 06:58:52;;;;;;;58.35;45.50;;;;;;;;;;143734;635;46021;-56
2021/11/15 07:01:20;;;;;;;56.28;42.97;;;;;;;;;;143731;588;46012;-55
2021/11/15 07:03:47;;;;;;;55.72;43.50;;;;;;;;;;143733;579;46020;-56
2021/11/15 07:06:15;;;;;;;58.78;45.85;;;;;;;;;;143737;579;46020;-55
2021/11/15 07:08:42;;;;;;;65.87;46.05;;;;;;;;;;143733;585;46023;-57
2021/11/15 07:11:09;;;;;;;53.10;38.28;;;;;;;;;;143731;589;46012;-55
2021/11/15 07:13:36;;;;;;;60.33;45.88;;;;;;;;;;143735;623;46021;-55
2021/11/15 07:16:03;;;;;;;70.47;51.60;;;;;;;;;;143736;600;45021;-56
2021/11/15 07:18:32;;;;;;;59.63;44.38;;;;;;;;;;143734;585;46020;-57
2021/11/15 07:21:01;;;;;;;58.58;42.88;;;;;;;;;;143734;574;46013;-55
2021/11/15 07:23:27;;;;;;;64.30;45.05;;;;;;;;;;143733;572;46020;-56
2021/11/15 07:25:54;;;;;;;54.53;40.92;;;;;;;;;;143736;638;46014;-56
2021/11/15 07:28:23;;;;;;;64.30;46.05;;;;;;;;;;143734;585;46021;-56
2021/11/15 07:30:54;;;;;;;91.78;59.03;;;;;;;;;;143731;596;46013;-55
2021/11/15 07:33:23;;;;;;;61.35;40.50;;;;;;;;;;143734;589;46020;-56
2021/11/15 07:35:50;;;;;;;50.88;37.60;;;;;;;;;;143735;573;46015;-56
2021/11/15 07:38:20;;;;;;;56.97;42.83;;;;;;;;;;143734;664;46020;-55
2021/11/15 07:40:48;;;;;;;70.22;45.95;;;;;;;;;;143731;580;46012;-56
2021/11/15 07:43:15;;;;;;;70.10;48.20;;;;;;;;;;143736;579;45041;-57
2021/11/15 07:45:43;;;;;;;49.05;37.25;;;;;;;;;;143736;607;45021;-56
2021/11/15 07:48:10;;;;;;;72.20;52.65;;;;;;;;;;143734;574;46020;-56
2021/11/15 07:50:38;;;;;;;63.55;47.00;;;;;;;;;;143733;581;46021;-57
2021/11/15 07:53:06;;;;;;;75.70;55.70;;;;;;;;;;143735;581;46021;-55
2021/11/15 07:55:33;;;;;;;58.92;44.42;;;;;;;;;;143737;634;45020;-55
2021/11/15 07:58:02;;;;;;;53.85;40.90;;;;;;;;;;143734;585;46021;-55
2021/11/15 08:00:29;;;;;;;54.80;42.67;;;;;;;;;;143732;589;46012;-55
2021/11/15 08:02:56;;;;;;;65.62;48.20;;;;;;;;;;143735;586;46018;-58
2021/11/15 08:05:25;;;;;;;49.47;36.40;;;;;;;;;;143736;585;45021;-57
2021/11/15 08:07:52;;;;;;;49.13;36.10;;;;;;;;;;143736;595;46023;-56
2021/11/15 08:10:21;;;;;;;65.65;46.35;;;;;;;;;;143732;578;46012;-56
2021/11/15 08:12:51;;;;;;;62.35;41.67;;;;;;;;;;143732;576;46020;-56
2021/11/15 08:15:20;;;;;;;52.90;38.58;;;;;;;;;;143735;626;46017;-57
2021/11/15 08:17:50;;;;;;;60.15;42.33;;;;;;;;;;143736;628;46020;-56
2021/11/15 08:20:20;;;;;;;57.72;43.47;;;;;;;;;;143735;565;46020;-58
2021/11/15 08:22:50;;;;;;;61.60;43.38;;;;;;;;;;143735;611;46018;-58
2021/11/15 08:26:11;;;;;;;56.35;43.72;;;;;;;;;;143736;646;46012;-57
2021/11/15 08:28:38;;;;;;;61.72;42.38;;;;;;;;;;143733;587;47022;-57
2021/11/15 08:31:07;;;;;;;56.80;39.40;;;;;;;;;;143732;608;46012;-58
2021/11/15 08:33:35;;;;;;;70.30;49.65;;;;;;;;;;143734;590;46020;-55
2021/11/15 08:36:03;;;;;;;60.67;41.22;;;;;;;;;;143733;580;46012;-55
2021/11/15 08:38:55;;;;;;;58.38;44.03;;;;;;;;;;143733;613;46020;-58
2021/11/15 08:41:27;;;;;;;57.85;41.55;;;;;;;;;;143730;596;46020;-57
2021/11/15 08:43:55;;;;;;;55.60;41.72;;;;;;;;;;143733;579;46021;-57
2021/11/15 08:46:28;;;;;;;60.47;42.40;;;;;;;;;;143736;567;46014;-57
2021/11/15 08:48:56;;;;;;;58.58;40.03;;;;;;;;;;143733;641;47010;-56
2021/11/15 08:51:24;;;;;;;52.97;38.80;;;;;;;;;;143732;572;46012;-57
2021/11/15 08:53:51;;;;;;;58.58;40.58;;;;;;;;;;143732;569;46020;-56
2021/11/15 08:56:19;;;;;;;52.00;38.95;;;;;;;;;;143731;565;49012;-56
2021/11/15 08:58:46;;;;;;;53.53;40.83;;;;;;;;;;143731;582;49020;-57
2021/11/15 09:01:15;;;;;;;61.47;43.03;;;;;;;;;;143734;595;46012;-57
2021/11/15 09:03:44;;;;;;;61.80;40.03;;;;;;;;;;143736;597;46020;-56
2021/11/15 09:06:12;;;;;;;55.97;40.95;;;;;;;;;;143736;574;46014;-57
2021/11/15 09:08:41;;;;;;;53.42;35.85;;;;;;;;;;143735;640;46023;-56
2021/11/15 09:11:10;;;;;;;56.97;39.05;;;;;;;;;;143732;580;46020;-56
2021/11/15 09:13:37;;;;;;;62.95;42.67;;;;;;;;;;143734;579;46021;-55
2021/11/15 09:16:05;;;;;;;56.95;38.83;;;;;;;;;;143733;584;46012;-56
2021/11/15 09:18:34;;;;;;;46.92;36.15;;;;;;;;;;143735;575;46022;-55
2021/11/15 09:21:01;;;;;;;58.30;39.60;;;;;;;;;;143735;594;46021;-57
2021/11/15 09:23:28;;;;;;;55.85;40.95;;;;;;;;;;143735;590;46020;-57
2021/11/15 09:25:55;;;;;;;47.08;36.30;;;;;;;;;;143737;591;46020;-57
2021/11/15 09:28:23;;;;;;;56.75;39.58;;;;;;;;;;143735;572;46021;-58
2021/11/15 09:30:50;;;;;;;66.25;44.10;;;;;;;;;;143732;699;46012;-58
2021/11/15 09:33:17;;;;;;;69.93;46.33;;;;;;;;;;143735;578;46018;-57
2021/11/15 09:35:49;;;;;;;62.03;43.72;;;;;;;;;;143738;564;46012;-58
2021/11/15 09:38:21;;;;;;;64.70;45.30;;;;;;;;;;143731;577;49012;-58
2021/11/15 09:40:56;;;;;;;64.50;46.65;;;;;;;;;;143735;577;46020;-57
2021/11/15 09:43:25;;;;;;;69.18;46.00;;;;;;;;;;143734;604;45021;-58
2021/11/15 09:45:52;;;;;;;70.75;47.80;;;;;;;;;;143739;571;46020;-57
2021/11/15 09:48:20;;;;;;;65.07;47.72;;;;;;;;;;143731;598;49022;-58
2021/11/15 09:50:47;;;;;;;60.63;43.42;;;;;;;;;;143733;629;46013;-58
2021/11/15 09:53:14;;;;;;;65.57;44.58;;;;;;;;;;143734;587;47021;-58
2021/11/15 09:55:41;;;;;;;78.43;50.63;;;;;;;;;;143737;642;46012;-58
2021/11/15 09:58:08;;;;;;;69.28;44.83;;;;;;;;;;143737;633;46021;-59
2021/11/15 10:00:39;;;;;;;75.10;46.75;;;;;;;;;;143736;586;46012;-56
2021/11/15 10:03:06;;;;;;;60.45;43.95;;;;;;;;;;143733;582;46020;-56
2021/11/15 10:05:33;;;;;;;72.03;50.03;;;;;;;;;;143737;647;46013;-57
2021/11/15 10:08:08;;;;;;;66.55;45.72;;;;;;;;;;143734;609;47020;-57
2021/11/15 10:10:39;;;;;;;;;;;;;;;;;;143738;974;46012;-56
2021/11/15 10:13:20;;;;;;;101.87;69.05;;;;;;;;;;143746;569;46019;-57
2021/11/15 10:16:07;;;;;;;100.93;71.80;;;;;;;;;;143736;596;46010;-56
2021/11/15 10:19:02;;;;;;;82.32;55.33;;;;;;;;;;143736;569;46020;-57
2021/11/15 10:21:41;;;;;;;98.43;64.12;;;;;;;;;;143736;700;46012;-57
2021/11/15 10:24:16;;;;;;;84.93;57.85;;;;;;;;;;143737;588;46018;-57
2021/11/15 10:26:58;;;;;;;75.00;51.65;;;;;;;;;;143738;569;46020;-56
2021/11/15 10:29:34;;;;;;;61.03;45.50;;;;;;;;;;143737;722;46020;-57
2021/11/15 10:32:22;;;;;;;76.95;51.95;;;;;;;;;;143735;577;46012;-56
2021/11/15 10:34:57;;;;;;;74.47;52.88;;;;;;;;;;143738;614;45047;-58
2021/11/15 10:37:29;;;;;;;70.65;46.53;;;;;;;;;;143740;591;45030;-57
2021/11/15 10:40:20;;;;;;;61.30;45.20;;;;;;;;;;143734;577;47020;-57
2021/11/15 10:42:50;;;;;;;59.13;41.08;;;;;;;;;;143733;580;46013;-57
2021/11/15 10:45:23;;;;;;;58.15;42.40;;;;;;;;;;143735;582;46018;-55
2021/11/15 10:48:01;;;;;;;61.90;44.20;;;;;;;;;;143738;618;46020;-55
2021/11/15 10:50:45;;;;;;;66.90;41.83;;;;;;;;;;143736;629;46022;-56
2021/11/15 10:53:21;;;;;;;58.33;40.63;;;;;;;;;;143737;615;46020;-57
2021/11/15 10:56:26;;;;;;;59.33;40.72;;;;;;;;;;143736;563;45020;-55
2021/11/15 10:58:52;;;;;;;59.67;38.97;;;;;;;;;;143740;571;46021;-58
2021/11/15 11:01:21;;;;;;;52.00;39.53;;;;;;;;;;143736;623;46020;-57
2021/11/15 11:03:48;;;;;;;58.53;43.00;;;;;;;;;;143735;566;46020;-56
2021/11/15 11:06:16;;;;;;;63.25;44.78;;;;;;;;;;143736;559;46018;-55
2021/11/15 11:08:48;;;;;;;62.97;44.67;;;;;;;;;;143739;569;45020;-58
2021/11/15 11:11:32;;;;;;;63.80;45.28;;;;;;;;;;143736;592;46022;-56
2021/11/15 11:14:02;;;;;;;62.70;45.58;;;;;;;;;;143736;611;46021;-57
2021/11/15 11:16:49;;;;;;;62.42;45.38;;;;;;;;;;143734;591;46020;-57
2021/11/15 11:19:33;;;;;;;58.45;43.95;;;;;;;;;;143737;575;46015;-58
2021/11/15 11:25:08;;;;;;;62.15;45.58;;;;;;;;;;143735;579;46020;-57
2021/11/15 11:27:36;;;;;;;57.47;41.05;;;;;;;;;;143734;583;46021;-57
2021/11/15 11:30:07;;;;;;;57.85;40.45;;;;;;;;;;143741;715;45020;-55
2021/11/15 11:32:33;;;;;;;59.90;42.58;;;;;;;;;;143735;613;47020;-56
2021/11/15 11:35:03;;;;;;;60.60;41.80;;;;;;;;;;143736;583;46020;-55
2021/11/15 11:37:31;;;;;;;54.05;39.85;;;;;;;;;;143737;622;46018;-55
2021/11/15 11:40:03;;;;;;;53.67;40.92;;;;;;;;;;143738;611;46014;-54
2021/11/15 11:42:30;;;;;;;56.53;39.13;;;;;;;;;;143736;596;46022;-57
2021/11/15 11:45:06;;;;;;;55.05;39.00;;;;;;;;;;143734;722;46012;-55
2021/11/15 11:47:34;;;;;;;58.90;39.40;;;;;;;;;;143734;591;46020;-55
2021/11/15 11:50:01;;;;;;;50.75;37.22;;;;;;;;;;143738;592;45021;-55
2021/11/15 11:52:31;;;;;;;51.40;35.45;;;;;;;;;;143736;565;46032;-54
2021/11/15 11:54:58;;;;;;;48.58;35.50;;;;;;;;;;143732;614;46012;-54
2021/11/15 11:57:29;;;;;;;49.25;35.72;;;;;;;;;;143736;569;46021;-55
2021/11/15 12:00:10;;;;;;;46.45;35.83;;;;;;;;;;143739;613;45020;-55
2021/11/15 12:02:38;;;;;;;40.47;32.00;;;;;;;;;;143735;641;46020;-54
2021/11/15 12:05:11;;;;;;;48.15;35.85;;;;;;;;;;143733;564;46012;-54
2021/11/15 12:07:51;;;;;;;49.95;34.78;;;;;;;;;;143734;564;46025;-54
2021/11/15 12:10:40;;;;;;;44.05;32.90;;;;;;;;;;143737;592;46010;-54
2021/11/15 12:13:10;;;;;;;43.42;33.72;;;;;;;;;;143735;608;47020;-54
2021/11/15 12:15:44;;;;;;;47.67;34.20;;;;;;;;;;143735;611;47020;-55
2021/11/15 12:18:22;;;;;;;40.55;32.58;;;;;;;;;;143735;643;46020;-54
2021/11/15 12:21:21;;;;;;;44.83;33.72;;;;;;;;;;143738;651;46021;-55
2021/11/15 12:24:17;;;;;;;68.30;47.00;;;;;;;;;;143735;582;46020;-54
2021/11/15 12:26:46;;;;;;;;;;;;;;;;;;143738;970;46012;-54
2021/11/15 12:29:27;;;;;;;66.47;49.63;;;;;;;;;;143744;713;46020;-54
2021/11/15 12:32:07;;;;;;;64.10;47.92;;;;;;;;;;143736;621;46012;-54
2021/11/15 12:34:55;;;;;;;65.50;47.10;;;;;;;;;;143735;565;46029;-54
2021/11/15 12:37:40;;;;;;;64.22;46.35;;;;;;;;;;143733;607;46047;-54
2021/11/15 12:40:09;;;;;;;62.40;43.85;;;;;;;;;;143736;569;46020;-54
2021/11/15 12:42:37;;;;;;;55.42;41.80;;;;;;;;;;143739;597;45034;-54
2021/11/15 12:45:12;;;;;;;55.35;39.97;;;;;;;;;;143733;609;47020;-54
2021/11/15 12:47:39;;;;;;;;;;;;;;;;;;143738;978;46020;-55
2021/11/15 12:50:13;;;;;;;54.47;39.40;;;;;;;;;;143745;584;46021;-54
2021/11/15 12:52:40;;;;;;;47.67;35.35;;;;;;;;;;143738;588;46029;-54
2021/11/15 12:55:17;;;;;;;55.97;36.85;;;;;;;;;;143735;571;46022;-55
2021/11/15 12:57:50;;;;;;;53.63;38.30;;;;;;;;;;143735;589;46012;-55
2021/11/15 13:00:23;;;;;;;58.60;41.80;;;;;;;;;;143736;582;45912;-54
2021/11/15 13:02:55;;;;;;;51.40;35.05;;;;;;;;;;143737;642;46010;-55
2021/11/15 13:05:24;;;;;;;57.47;40.40;;;;;;;;;;143736;629;46021;-54
2021/11/15 13:07:52;;;;;;;48.33;35.45;;;;;;;;;;143735;583;46012;-54
2021/11/15 13:10:21;;;;;;;48.33;34.85;;;;;;;;;;143733;591;46020;-55
2021/11/15 13:12:48;;;;;;;49.80;34.53;;;;;;;;;;143739;642;46010;-55
2021/11/15 13:15:15;;;;;;;56.97;42.10;;;;;;;;;;143736;614;46022;-55
2021/11/15 13:17:42;;;;;;;54.20;38.90;;;;;;;;;;143733;630;46012;-54
2021/11/15 13:20:12;;;;;;;63.70;45.85;;;;;;;;;;143736;622;46021;-55
2021/11/15 13:22:41;;;;;;;55.78;39.83;;;;;;;;;;143739;592;45020;-54
2021/11/15 13:25:08;;;;;;;75.65;50.75;;;;;;;;;;143736;611;46022;-55
2021/11/15 13:27:36;;;;;;;80.65;56.90;;;;;;;;;;143733;753;46013;-55
2021/11/15 13:30:06;;;;;;;80.30;55.38;;;;;;;;;;143737;625;46018;-55
2021/11/15 13:32:34;;;;;;;77.18;52.67;;;;;;;;;;143738;651;46014;-55
2021/11/15 13:35:01;;;;;;;75.75;52.28;;;;;;;;;;143736;581;46023;-55
2021/11/15 13:37:28;;;;;;;70.78;52.35;;;;;;;;;;143733;570;46012;-56
2021/11/15 13:39:55;;;;;;;66.97;47.30;;;;;;;;;;143734;599;46020;-55
2021/11/15 13:42:25;;;;;;;65.55;46.58;;;;;;;;;;143738;565;45021;-55
2021/11/15 13:44:53;;;;;;;65.15;45.58;;;;;;;;;;143735;670;46020;-55
2021/11/15 13:47:21;;;;;;;60.85;43.55;;;;;;;;;;143733;583;46012;-55
2021/11/15 13:49:48;;;;;;;67.60;49.38;;;;;;;;;;143736;604;46018;-55
2021/11/15 13:52:16;;;;;;;68.60;47.03;;;;;;;;;;143738;585;45034;-55
2021/11/15 13:54:46;;;;;;;62.38;45.38;;;;;;;;;;143736;607;46022;-55
2021/11/15 13:57:14;;;;;;;55.00;40.08;;;;;;;;;;143735;633;46021;-54
2021/11/15 13:59:41;;;;;;;63.22;48.05;;;;;;;;;;143737;592;45020;-55
2021/11/15 14:02:10;;;;;;;58.95;40.78;;;;;;;;;;143738;584;45020;-54
2021/11/15 14:04:37;;;;;;;72.65;51.15;;;;;;;;;;143735;590;46021;-55
2021/11/15 14:07:04;;;;;;;61.30;41.75;;;;;;;;;;143733;579;46012;-54
2021/11/15 14:09:31;;;;;;;53.35;39.60;;;;;;;;;;143736;608;46018;-56
2021/11/15 14:11:58;;;;;;;65.97;46.37;;;;;;;;;;143738;575;45021;-55
2021/11/15 14:14:25;;;;;;;60.70;40.92;;;;;;;;;;143736;702;46022;-55
2021/11/15 14:16:54;;;;;;;58.58;44.08;;;;;;;;;;143735;652;46012;-55
2021/11/15 14:19:22;;;;;;;51.75;38.85;;;;;;;;;;143738;639;45042;-55
2021/11/15 14:21:50;;;;;;;47.30;34.85;;;;;;;;;;143737;575;46014;-55
2021/11/15 14:24:17;;;;;;;57.38;42.50;;;;;;;;;;143734;575;46022;-55
2021/11/15 14:26:44;;;;;;;55.83;42.78;;;;;;;;;;143730;594;46013;-55
2021/11/15 14:29:11;;;;;;;55.53;41.05;;;;;;;;;;143735;569;46020;-55
2021/11/15 14:31:38;;;;;;;48.67;34.58;;;;;;;;;;143733;584;46010;-55
2021/11/15 14:34:05;;;;;;;53.67;40.28;;;;;;;;;;143735;569;46022;-56
2021/11/15 14:36:32;;;;;;;51.45;37.58;;;;;;;;;;143732;565;46012;-56